Time;durP1;ratioP1;P1;durP2;ratioP2;P2;SDS_P1;SDS_P2;PMS_P1;PMS_P2;Temp;Humidity;BMP_temperature;BMP_pressure;BME280_temperature;BME280_humidity;BME280_pressure;Samples;Min_cycle;Max_cycle;Signal;HPM_P1;HPM_P2
2021/12/02 00:00:05;;;;;;;;;;;;;;;3.59;89.31738;99930.8;;;;-80
2021/12/02 00:05:04;;;;;;;;;;;;;;;3.56;89.24414;99940.34;;;;-81
2021/12/02 00:09:02;;;;;;;1.2;0.3;;;;;;;;;;;;;-81
2021/12/02 00:10:05;;;;;;;;;;;;;;;3.53;89.15234;99936.66;;;;-82
2021/12/02 00:15:07;;;;;;;;;;;;;;;3.5;89.06836;99952.83;;;;-81
2021/12/02 00:25:08;;;;;;;;;;;;;;;3.48;89.09766;99968.73;;;;-82
2021/12/02 00:30:05;;;;;;;;;;;;;;;3.48;89.09766;99971.67;;;;-81
2021/12/02 00:35:06;;;;;;;;;;;;;;;3.48;89.19531;99951.82;;;;-81
2021/12/02 00:39:02;;;;;;;2.9;0.3;;;;;;;;;;;;;-81
2021/12/02 00:40:04;;;;;;;;;;;;;;;3.47;89.29102;99946.95;;;;-81
2021/12/02 00:45:06;;;;;;;;;;;;;;;3.45;89.38477;99941.98;;;;-81
2021/12/02 00:50:04;;;;;;;;;;;;;;;3.43;89.22949;99947.02;;;;-81
2021/12/02 00:55:05;;;;;;;;;;;;;;;3.39;89.1416;99951.16;;;;-81
2021/12/02 01:00:05;;;;;;;;;;;;;;;3.33;88.9043;99928.31;;;;-81
2021/12/02 01:05:05;;;;;;;;;;;;;;;3.29;88.93848;99951.8;;;;-81
2021/12/02 01:09:00;;;;;;;1.7;0.2;;;;;;;;;;;;;-81
2021/12/02 01:10:04;;;;;;;;;;;;;;;3.26;88.99805;99957.41;;;;-81
2021/12/02 01:15:04;;;;;;;;;;;;;;;3.24;89.03809;99945.95;;;;-81
2021/12/02 01:20:04;;;;;;;;;;;;;;;3.22;89.07715;99948.36;;;;-82
2021/12/02 01:25:05;;;;;;;;;;;;;;;3.21;89.11719;99942.05;;;;-80
2021/12/02 01:30:04;;;;;;;;;;;;;;;3.2;89.16895;99971.91;;;;-82
2021/12/02 01:35:14;;;;;;;;;;;;;;;3.19;89.10059;99972.8;;;;-82
2021/12/02 01:39:00;;;;;;;0.6;0.2;;;;;;;;;;;;;-80
2021/12/02 01:40:05;;;;;;;;;;;;;;;3.18;89.25195;99978.7;;;;-82
2021/12/02 01:45:05;;;;;;;;;;;;;;;3.18;89.30664;99987.24;;;;-81
2021/12/02 01:50:05;;;;;;;;;;;;;;;3.19;89.34961;99976.39;;;;-80
2021/12/02 01:55:09;;;;;;;;;;;;;;;3.17;89.27246;99962.2;;;;-81
2021/12/02 02:00:08;;;;;;;;;;;;;;;3.16;89.37695;99957.03;;;;-80
2021/12/02 02:05:10;;;;;;;;;;;;;;;3.14;89.30762;99964.01;;;;-81
2021/12/02 02:09:00;;;;;;;1.1;0.2;;;;;;;;;;;;;-82
2021/12/02 02:10:04;;;;;;;;;;;;;;;3.12;89.27344;99962.06;;;;-80
2021/12/02 02:15:05;;;;;;;;;;;;;;;3.1;89.19238;99964.23;;;;-80
2021/12/02 02:20:07;;;;;;;;;;;;;;;3.08;89.24219;99968.44;;;;-81
2021/12/02 02:25:10;;;;;;;;;;;;;;;3.06;89.23828;99972.73;;;;-81
2021/12/02 02:30:04;;;;;;;;;;;;;;;3.05;89.24805;99981.42;;;;-82
2021/12/02 02:35:04;;;;;;;;;;;;;;;3.03;89.25488;99975.69;;;;-82
2021/12/02 02:39:02;;;;;;;3.2;0.3;;;;;;;;;;;;;-81
2021/12/02 02:40:05;;;;;;;;;;;;;;;3;89.24902;99974.59;;;;-82
2021/12/02 02:45:05;;;;;;;;;;;;;;;2.99;89.2666;99970.23;;;;-81
2021/12/02 02:50:04;;;;;;;;;;;;;;;2.99;89.375;99971.05;;;;-81
2021/12/02 02:55:04;;;;;;;;;;;;;;;3;89.37695;99975.37;;;;-81
2021/12/02 03:00:09;;;;;;;;;;;;;;;3;89.40039;99980.63;;;;-81
2021/12/02 03:05:12;;;;;;;;;;;;;;;3;89.4209;99979.12;;;;-81
2021/12/02 03:09:01;;;;;;;2.4;0.4;;;;;;;;;;;;;-81
2021/12/02 03:10:11;;;;;;;;;;;;;;;3.02;89.47852;99987.05;;;;-81
2021/12/02 03:20:05;;;;;;;;;;;;;;;3.04;89.59277;99979.27;;;;-79
2021/12/02 03:25:04;;;;;;;;;;;;;;;3.06;89.66113;99984.83;;;;-81
2021/12/02 03:30:06;;;;;;;;;;;;;;;3.07;89.71777;99992.94;;;;-81
2021/12/02 03:35:06;;;;;;;;;;;;;;;3.08;89.77344;99974.89;;;;-82
2021/12/02 03:38:55;;;;;;;3.7;0.5;;;;;;;;;;;;;-82
2021/12/02 03:40:04;;;;;;;;;;;;;;;3.09;89.77539;99983.98;;;;-81
2021/12/02 03:45:04;;;;;;;;;;;;;;;3.1;89.6582;100001.6;;;;-83
2021/12/02 03:50:05;;;;;;;;;;;;;;;3.09;89.71094;99995.5;;;;-80
2021/12/02 03:55:04;;;;;;;;;;;;;;;3.08;89.67578;99993.71;;;;-82
2021/12/02 04:00:04;;;;;;;;;;;;;;;3.07;89.59863;99994.02;;;;-81
2021/12/02 04:05:04;;;;;;;;;;;;;;;3.07;89.56738;99997.03;;;;-82
2021/12/02 04:08:55;;;;;;;2.1;0.3;;;;;;;;;;;;;-82
2021/12/02 04:10:04;;;;;;;;;;;;;;;3.05;89.55273;99994.84;;;;-81
2021/12/02 04:15:06;;;;;;;;;;;;;;;3.03;89.42676;99991.53;;;;-81
2021/12/02 04:20:04;;;;;;;;;;;;;;;2.98;89.28711;99995.53;;;;-81
2021/12/02 04:25:07;;;;;;;;;;;;;;;2.94;89.17969;99998.47;;;;-81
2021/12/02 04:30:04;;;;;;;;;;;;;;;2.9;88.99902;100001.8;;;;-80
2021/12/02 04:35:04;;;;;;;;;;;;;;;2.87;89.01465;100030.9;;;;-81
2021/12/02 04:38:53;;;;;;;1.5;0.4;;;;;;;;;;;;;-82
2021/12/02 04:40:04;;;;;;;;;;;;;;;2.85;88.96582;100033.9;;;;-81
2021/12/02 04:45:04;;;;;;;;;;;;;;;2.84;89.09375;100040.6;;;;-82
2021/12/02 04:50:04;;;;;;;;;;;;;;;2.84;89.18066;100037.5;;;;-82
2021/12/02 04:55:04;;;;;;;;;;;;;;;2.84;89.18066;100045.2;;;;-81
2021/12/02 05:00:04;;;;;;;;;;;;;;;2.83;89.22363;100034.9;;;;-81
2021/12/02 05:05:07;;;;;;;;;;;;;;;2.82;89.29785;100049;;;;-81
2021/12/02 05:08:53;;;;;;;1.5;0.3;;;;;;;;;;;;;-81
2021/12/02 05:10:04;;;;;;;;;;;;;;;2.83;89.32129;100056.4;;;;-81
2021/12/02 05:15:04;;;;;;;;;;;;;;;2.82;89.30859;100030.6;;;;-82
2021/12/02 05:20:04;;;;;;;;;;;;;;;2.81;89.24023;100049.1;;;;-80
2021/12/02 05:25:04;;;;;;;;;;;;;;;2.79;89.18262;100041.7;;;;-81
2021/12/02 05:30:06;;;;;;;;;;;;;;;2.75;89.08789;100043.3;;;;-82
2021/12/02 05:35:04;;;;;;;;;;;;;;;2.71;88.9375;100036.3;;;;-82
2021/12/02 05:38:52;;;;;;;0.8;0.3;;;;;;;;;;;;;-81
2021/12/02 05:40:04;;;;;;;;;;;;;;;2.66;88.76563;100022.2;;;;-81
2021/12/02 05:45:04;;;;;;;;;;;;;;;2.58;88.68359;100014.2;;;;-81
2021/12/02 05:50:04;;;;;;;;;;;;;;;2.51;88.52832;100007.4;;;;-80
2021/12/02 05:55:04;;;;;;;;;;;;;;;2.45;88.34375;100008.8;;;;-82
2021/12/02 06:00:04;;;;;;;;;;;;;;;2.4;88.45313;100016.2;;;;-81
2021/12/02 06:05:04;;;;;;;;;;;;;;;2.34;88.35156;100026.8;;;;-83
2021/12/02 06:08:50;;;;;;;1.2;0.4;;;;;;;;;;;;;-81
2021/12/02 06:10:04;;;;;;;;;;;;;;;2.28;88.32031;100036.2;;;;-81
2021/12/02 06:15:04;;;;;;;;;;;;;;;2.23;88.3291;100034.4;;;;-83
2021/12/02 06:20:05;;;;;;;;;;;;;;;2.17;88.35059;100050.9;;;;-81
2021/12/02 06:25:44;;;;;;;;;;;;;;;2.15;88.36816;100070.5;;;;-82
2021/12/02 06:30:04;;;;;;;;;;;;;;;2.12;88.54492;100083;;;;-81
2021/12/02 06:35:04;;;;;;;;;;;;;;;2.09;88.6582;100083.5;;;;-82
2021/12/02 06:38:49;;;;;;;0.8;0.2;;;;;;;;;;;;;-81
2021/12/02 06:40:04;;;;;;;;;;;;;;;2.09;88.875;100097;;;;-82
2021/12/02 06:45:05;;;;;;;;;;;;;;;2.1;88.97559;100118.7;;;;-83
2021/12/02 06:50:18;;;;;;;;;;;;;;;2.1;89.12695;100129.2;;;;-82
2021/12/02 06:55:06;;;;;;;;;;;;;;;2.12;89.19434;100125.1;;;;-80
2021/12/02 07:00:07;;;;;;;;;;;;;;;2.12;89.20703;100140;;;;-81
2021/12/02 07:05:04;;;;;;;;;;;;;;;2.12;89.26953;100133.4;;;;-81
2021/12/02 07:08:47;;;;;;;1.2;0.3;;;;;;;;;;;;;-81
2021/12/02 07:10:04;;;;;;;;;;;;;;;2.13;89.36914;100129;;;;-80
2021/12/02 07:15:06;;;;;;;;;;;;;;;2.13;89.38184;100119.8;;;;-81
2021/12/02 07:20:04;;;;;;;;;;;;;;;2.13;89.34961;100123.6;;;;-81
2021/12/02 07:25:04;;;;;;;;;;;;;;;2.12;89.36719;100132.5;;;;-82
2021/12/02 07:38:46;;;;;;;1.3;0.5;;;;;;;;;;;;;-81
2021/12/02 07:39:28;;;;;;;;;;;;;;;2.07;89.1543;100149.3;;;;-81
2021/12/02 07:44:29;;;;;;;;;;;;;;;2.05;89.2041;100157.7;;;;-80
2021/12/02 07:49:28;;;;;;;;;;;;;;;2.04;89.04688;100174.5;;;;-80
2021/12/02 07:54:26;;;;;;;;;;;;;;;2.02;89.12109;100180;;;;-80
2021/12/02 07:59:28;;;;;;;;;;;;;;;2.03;89.17676;100195.2;;;;-81
2021/12/02 08:04:26;;;;;;;;;;;;;;;2.04;89.27637;100177.6;;;;-81
2021/12/02 08:08:46;;;;;;;1.9;0.5;;;;;;;;;;;;;-81
2021/12/02 08:09:26;;;;;;;;;;;;;;;2.07;89.31445;100176.2;;;;-80
2021/12/02 08:14:26;;;;;;;;;;;;;;;2.08;89.31836;100190.7;;;;-80
2021/12/02 08:19:26;;;;;;;;;;;;;;;2.11;89.33301;100189;;;;-81
2021/12/02 08:24:26;;;;;;;;;;;;;;;2.11;89.31152;100185.8;;;;-82
2021/12/02 08:29:26;;;;;;;;;;;;;;;2.13;89.34961;100197.2;;;;-81
2021/12/02 08:34:26;;;;;;;;;;;;;;;2.13;89.27344;100208.7;;;;-82
2021/12/02 08:38:48;;;;;;;1.1;0.3;;;;;;;;;;;;;-80
2021/12/02 08:39:29;;;;;;;;;;;;;;;2.13;89.36035;100258.6;;;;-79
2021/12/02 08:44:29;;;;;;;;;;;;;;;2.13;89.41406;100268.4;;;;-81
2021/12/02 08:49:26;;;;;;;;;;;;;;;2.13;89.43555;100263.4;;;;-82
2021/12/02 08:54:26;;;;;;;;;;;;;;;2.14;89.37305;100269.9;;;;-81
2021/12/02 08:59:26;;;;;;;;;;;;;;;2.14;89.34961;100268.2;;;;-81
2021/12/02 09:04:26;;;;;;;;;;;;;;;2.17;89.35645;100274;;;;-83
2021/12/02 09:08:43;;;;;;;4.1;0.4;;;;;;;;;;;;;-81
2021/12/02 09:09:29;;;;;;;;;;;;;;;2.22;89.11914;100276;;;;-82
2021/12/02 09:14:26;;;;;;;;;;;;;;;2.24;89.15332;100283.5;;;;-81
2021/12/02 09:19:26;;;;;;;;;;;;;;;2.27;89.13965;100284.9;;;;-82
2021/12/02 09:24:26;;;;;;;;;;;;;;;2.32;89.06445;100297.7;;;;-81
2021/12/02 09:29:26;;;;;;;;;;;;;;;2.33;89.08594;100325.8;;;;-80
2021/12/02 09:34:26;;;;;;;;;;;;;;;2.32;89.16113;100344.7;;;;-80
2021/12/02 09:38:41;;;;;;;1.3;0.3;;;;;;;;;;;;;-80
2021/12/02 09:39:32;;;;;;;;;;;;;;;2.32;89.37793;100367.7;;;;-80
2021/12/02 09:44:26;;;;;;;;;;;;;;;2.32;89.46484;100379.4;;;;-80
2021/12/02 09:49:27;;;;;;;;;;;;;;;2.32;89.43066;100386.1;;;;-81
2021/12/02 09:54:30;;;;;;;;;;;;;;;2.31;89.35254;100380.6;;;;-80
2021/12/02 09:59:29;;;;;;;;;;;;;;;2.3;89.33984;100366;;;;-79
2021/12/02 10:04:27;;;;;;;;;;;;;;;2.3;89.28809;100372.9;;;;-79
2021/12/02 10:08:45;;;;;;;0.9;0.3;;;;;;;;;;;;;-79
2021/12/02 10:09:36;;;;;;;;;;;;;;;2.32;89.1709;100373.4;;;;-79
2021/12/02 10:14:30;;;;;;;;;;;;;;;2.33;89.10938;100379.1;;;;-79
2021/12/02 10:19:28;;;;;;;;;;;;;;;2.32;89.0752;100378.9;;;;-79
2021/12/02 10:24:28;;;;;;;;;;;;;;;2.32;89.0625;100371.3;;;;-79
2021/12/02 10:29:28;;;;;;;;;;;;;;;2.31;89.07324;100379.4;;;;-79
2021/12/02 10:34:26;;;;;;;;;;;;;;;2.32;89.10742;100388.5;;;;-80
2021/12/02 10:38:44;;;;;;;3.3;0.4;;;;;;;;;;;;;-80
2021/12/02 10:39:30;;;;;;;;;;;;;;;2.31;89.11621;100401.5;;;;-79
2021/12/02 10:44:30;;;;;;;;;;;;;;;2.32;89.14941;100402.9;;;;-79
2021/12/02 10:49:26;;;;;;;;;;;;;;;2.32;89.11816;100414.5;;;;-80
2021/12/02 10:54:27;;;;;;;;;;;;;;;2.34;89.10938;100426;;;;-80
2021/12/02 10:59:42;;;;;;;;;;;;;;;2.44;88.87012;100434.8;;;;-79
2021/12/02 11:04:27;;;;;;;;;;;;;;;2.45;88.79785;100414.4;;;;-80
2021/12/02 11:08:41;;;;;;;1.5;0.4;;;;;;;;;;;;;-81
2021/12/02 11:09:33;;;;;;;;;;;;;;;2.47;88.99707;100412.5;;;;-80
2021/12/02 11:14:26;;;;;;;;;;;;;;;2.58;88.99805;100416.7;;;;-80
2021/12/02 11:19:31;;;;;;;;;;;;;;;2.74;88.87793;100427.6;;;;-81
2021/12/02 11:24:37;;;;;;;;;;;;;;;2.77;88.64746;100422.7;;;;-80
2021/12/02 11:29:39;;;;;;;;;;;;;;;2.8;88.58789;100421.5;;;;-80
2021/12/02 11:34:33;;;;;;;;;;;;;;;2.84;88.59766;100428.4;;;;-82
2021/12/02 11:38:39;;;;;;;1.5;0.5;;;;;;;;;;;;;-79
2021/12/02 11:39:26;;;;;;;;;;;;;;;2.94;88.51855;100430.4;;;;-79
2021/12/02 11:44:26;;;;;;;;;;;;;;;3.14;88.33203;100431.8;;;;-79
2021/12/02 11:49:28;;;;;;;;;;;;;;;3.3;88.04004;100443.6;;;;-80
2021/12/02 11:54:26;;;;;;;;;;;;;;;3.32;88.16504;100452.1;;;;-81
2021/12/02 11:59:29;;;;;;;;;;;;;;;3.39;88.4707;100455.6;;;;-80
2021/12/02 12:04:26;;;;;;;;;;;;;;;3.52;88.45313;100469.3;;;;-80
2021/12/02 12:08:38;;;;;;;1;0.4;;;;;;;;;;;;;-82
2021/12/02 12:09:29;;;;;;;;;;;;;;;3.65;88.27539;100472.6;;;;-82
2021/12/02 12:14:36;;;;;;;;;;;;;;;3.68;88.17188;100477.9;;;;-81
2021/12/02 12:19:29;;;;;;;;;;;;;;;3.74;88.18555;100483.9;;;;-80
2021/12/02 12:24:40;;;;;;;;;;;;;;;3.89;87.69531;100485.5;;;;-84
2021/12/02 12:29:32;;;;;;;;;;;;;;;3.92;87.57031;100496.5;;;;-80
2021/12/02 12:38:57;;;;;;;3.4;0.6;;;;;;;;;;;;;-80
2021/12/02 12:39:33;;;;;;;;;;;;;;;3.95;87.70605;100506.9;;;;-81
2021/12/02 12:56:47;;;;;;;;;;;;;;;3.97;88.16699;100527.9;;;;-90
2021/12/02 13:08:37;;;;;;;1.5;0.5;;;;;;;;;;;;;-81
2021/12/02 13:10:29;;;;;;;;;;;;;;;3.94;88.32422;100555.3;;;;-81
2021/12/02 13:15:30;;;;;;;;;;;;;;;3.92;88.375;100559.4;;;;-80
2021/12/02 13:20:43;;;;;;;;;;;;;;;3.9;88.40332;100564.2;;;;-81
2021/12/02 13:25:42;;;;;;;;;;;;;;;3.88;88.39844;100567.3;;;;-80
2021/12/02 13:30:30;;;;;;;;;;;;;;;3.85;88.28418;100589.3;;;;-80
2021/12/02 13:35:31;;;;;;;;;;;;;;;3.82;88.22363;100589.4;;;;-81
2021/12/02 13:38:34;;;;;;;0.9;0.3;;;;;;;;;;;;;-81
2021/12/02 13:40:28;;;;;;;;;;;;;;;3.77;88.16016;100589.6;;;;-82
2021/12/02 13:45:30;;;;;;;;;;;;;;;3.74;88.03125;100610.3;;;;-80
2021/12/02 13:50:39;;;;;;;;;;;;;;;3.71;87.92773;100603.9;;;;-80
2021/12/02 13:55:36;;;;;;;;;;;;;;;3.68;87.7373;100610.9;;;;-80
2021/12/02 14:00:32;;;;;;;;;;;;;;;3.64;87.58691;100613.1;;;;-79
2021/12/02 14:05:32;;;;;;;;;;;;;;;3.59;87.55664;100638.4;;;;-80
2021/12/02 14:08:36;;;;;;;2.5;0.5;;;;;;;;;;;;;-81
2021/12/02 14:10:34;;;;;;;;;;;;;;;3.56;87.57031;100655.8;;;;-79
2021/12/02 14:15:33;;;;;;;;;;;;;;;3.56;87.59277;100662.7;;;;-81
2021/12/02 14:20:35;;;;;;;;;;;;;;;3.55;87.4834;100678.2;;;;-80
2021/12/02 14:25:33;;;;;;;;;;;;;;;3.53;87.52344;100676.3;;;;-80
2021/12/02 14:30:31;;;;;;;;;;;;;;;3.49;87.42773;100681.1;;;;-81
2021/12/02 14:35:33;;;;;;;;;;;;;;;3.46;87.44336;100685.9;;;;-80
2021/12/02 14:38:32;;;;;;;5.2;0.5;;;;;;;;;;;;;-80
2021/12/02 14:41:06;;;;;;;;;;;;;;;3.43;87.3623;100696.4;;;;-79
2021/12/02 14:45:31;;;;;;;;;;;;;;;3.4;87.38672;100703.6;;;;-80
2021/12/02 14:50:31;;;;;;;;;;;;;;;3.36;87.42285;100704.8;;;;-80
2021/12/02 14:55:36;;;;;;;;;;;;;;;3.33;87.32031;100710.1;;;;-79
2021/12/02 15:00:34;;;;;;;;;;;;;;;3.27;87.2832;100724.1;;;;-79
2021/12/02 15:05:32;;;;;;;;;;;;;;;3.2;87.27246;100720.7;;;;-79
2021/12/02 15:08:35;;;;;;;2.4;0.5;;;;;;;;;;;;;-80
2021/12/02 15:10:32;;;;;;;;;;;;;;;3.14;87.25977;100739.6;;;;-81
2021/12/02 15:15:31;;;;;;;;;;;;;;;3.08;87.2793;100745.4;;;;-80
2021/12/02 15:20:37;;;;;;;;;;;;;;;3.03;87.34375;100759.4;;;;-79
2021/12/02 15:25:34;;;;;;;;;;;;;;;2.98;87.35645;100781.1;;;;-79
2021/12/02 15:30:32;;;;;;;;;;;;;;;2.93;87.36914;100802.7;;;;-80
2021/12/02 15:35:33;;;;;;;;;;;;;;;2.88;87.41211;100814.1;;;;-80
2021/12/02 15:38:29;;;;;;;1;0.3;;;;;;;;;;;;;-79
2021/12/02 15:40:31;;;;;;;;;;;;;;;2.86;87.48438;100848.2;;;;-80
2021/12/02 15:45:31;;;;;;;;;;;;;;;2.83;87.51074;100853.9;;;;-79
2021/12/02 15:50:32;;;;;;;;;;;;;;;2.81;87.54883;100868.7;;;;-79
2021/12/02 15:55:31;;;;;;;;;;;;;;;2.8;87.55957;100866.6;;;;-79
2021/12/02 16:00:31;;;;;;;;;;;;;;;2.79;87.64258;100856;;;;-80
2021/12/02 16:05:38;;;;;;;;;;;;;;;2.75;87.72168;100860.7;;;;-80
2021/12/02 16:08:31;;;;;;;0.6;0.3;;;;;;;;;;;;;-80
2021/12/02 16:11:05;;;;;;;;;;;;;;;2.71;87.76758;100867.4;;;;-81
2021/12/02 16:15:32;;;;;;;;;;;;;;;2.65;87.67871;100856.8;;;;-80
2021/12/02 16:20:34;;;;;;;;;;;;;;;2.56;87.52051;100863.8;;;;-79
2021/12/02 16:25:31;;;;;;;;;;;;;;;2.49;87.48438;100875.3;;;;-80
2021/12/02 16:30:32;;;;;;;;;;;;;;;2.41;87.45898;100879.3;;;;-80
2021/12/02 16:35:31;;;;;;;;;;;;;;;2.34;87.48535;100895.6;;;;-80
2021/12/02 16:38:24;;;;;;;1.2;0.5;;;;;;;;;;;;;-79
2021/12/02 16:40:32;;;;;;;;;;;;;;;2.26;87.35156;100897.4;;;;-80
2021/12/02 16:45:33;;;;;;;;;;;;;;;2.19;87.40137;100900.2;;;;-81
2021/12/02 16:50:32;;;;;;;;;;;;;;;2.13;87.42285;100902.5;;;;-81
2021/12/02 16:55:32;;;;;;;;;;;;;;;2.05;87.31934;100905.3;;;;-79
2021/12/02 17:00:32;;;;;;;;;;;;;;;1.98;87.31543;100913.4;;;;-79
2021/12/02 17:05:31;;;;;;;;;;;;;;;1.9;87.22363;100918.9;;;;-80
2021/12/02 17:08:23;;;;;;;0.9;0.4;;;;;;;;;;;;;-80
2021/12/02 17:10:31;;;;;;;;;;;;;;;1.82;87.23926;100921.6;;;;-80
2021/12/02 17:15:33;;;;;;;;;;;;;;;1.75;87.25879;100932.6;;;;-81
2021/12/02 17:20:33;;;;;;;;;;;;;;;1.68;87.26758;100934.5;;;;-80
2021/12/02 17:25:34;;;;;;;;;;;;;;;1.6;87.18359;100937.6;;;;-78
2021/12/02 17:30:31;;;;;;;;;;;;;;;1.51;87.14551;100939.2;;;;-80
2021/12/02 17:35:31;;;;;;;;;;;;;;;1.43;87.18262;100947.5;;;;-79
2021/12/02 17:38:22;;;;;;;2.5;0.5;;;;;;;;;;;;;-80
2021/12/02 17:40:33;;;;;;;;;;;;;;;1.35;87.24414;100948.6;;;;-80
2021/12/02 17:45:31;;;;;;;;;;;;;;;1.29;87.25;100958.9;;;;-80
2021/12/02 17:50:34;;;;;;;;;;;;;;;1.22;87.22461;100957.4;;;;-81
2021/12/02 17:55:31;;;;;;;;;;;;;;;1.15;87.25684;100953.1;;;;-80
2021/12/02 18:00:31;;;;;;;;;;;;;;;1.08;87.24219;100954.5;;;;-81
2021/12/02 18:05:31;;;;;;;;;;;;;;;1.01;87.2168;100957.2;;;;-79
2021/12/02 18:08:20;;;;;;;1.9;0.7;;;;;;;;;;;;;-80
2021/12/02 18:10:31;;;;;;;;;;;;;;;0.95;87.31152;100963.3;;;;-80
2021/12/02 18:15:31;;;;;;;;;;;;;;;0.88;87.25586;100966;;;;-81
2021/12/02 18:20:35;;;;;;;;;;;;;;;0.82;87.25293;100976.7;;;;-80
2021/12/02 18:25:31;;;;;;;;;;;;;;;0.76;87.24219;100985.9;;;;-81
2021/12/02 18:30:32;;;;;;;;;;;;;;;0.69;87.21484;100993.2;;;;-81
2021/12/02 18:35:53;;;;;;;;;;;;;;;0.62;87.25586;100992.9;;;;-80
2021/12/02 18:38:19;;;;;;;1.8;0.9;;;;;;;;;;;;;-80
2021/12/02 18:40:31;;;;;;;;;;;;;;;0.57;87.25488;100999.6;;;;-81
2021/12/02 18:45:31;;;;;;;;;;;;;;;0.52;87.33008;101003.5;;;;-80
2021/12/02 18:50:31;;;;;;;;;;;;;;;0.46;87.24512;101022.3;;;;-80
2021/12/02 18:55:31;;;;;;;;;;;;;;;0.4;87.17871;101009.7;;;;-81
2021/12/02 19:00:31;;;;;;;;;;;;;;;0.34;87.3916;101013;;;;-80
2021/12/02 19:05:33;;;;;;;;;;;;;;;0.3;87.37402;101015;;;;-80
2021/12/02 19:30:31;;;;;;;;;;;;;;;0.13;87.46582;101050.2;;;;-81
2021/12/02 19:35:32;;;;;;;;;;;;;;;0.08;87.62012;101047.1;;;;-80
2021/12/02 19:38:16;;;;;;;3.4;1.2;;;;;;;;;;;;;-81
2021/12/02 19:40:33;;;;;;;;;;;;;;;0.05;87.64648;101066.2;;;;-80
2021/12/02 19:45:31;;;;;;;;;;;;;;;0.04;87.63184;101066.2;;;;-81
2021/12/02 19:50:33;;;;;;;;;;;;;;;0.01;87.62695;101068.4;;;;-81
2021/12/02 19:55:31;;;;;;;;;;;;;;;-0.03;87.6709;101063;;;;-80
2021/12/02 20:00:31;;;;;;;;;;;;;;;-0.06;87.67676;101056.8;;;;-81
2021/12/02 20:05:31;;;;;;;;;;;;;;;-0.1;87.66699;101060.8;;;;-81
2021/12/02 20:08:16;;;;;;;3;1.1;;;;;;;;;;;;;-79
2021/12/02 20:10:31;;;;;;;;;;;;;;;-0.14;87.74609;101075.8;;;;-80
2021/12/02 20:20:34;;;;;;;;;;;;;;;-0.2;87.57129;101088.2;;;;-81
2021/12/02 20:25:39;;;;;;;;;;;;;;;-0.24;87.59766;101080.7;;;;-80
2021/12/02 20:30:32;;;;;;;;;;;;;;;-0.25;87.66895;101079.9;;;;-80
2021/12/02 20:35:33;;;;;;;;;;;;;;;-0.27;87.67676;101086.3;;;;-81
2021/12/02 20:38:16;;;;;;;2.6;1.4;;;;;;;;;;;;;-81
2021/12/02 20:40:30;;;;;;;;;;;;;;;-0.3;87.78711;101078.2;;;;-81
2021/12/02 20:45:55;;;;;;;;;;;;;;;-0.31;87.87402;101086.3;;;;-84
2021/12/02 20:50:30;;;;;;;;;;;;;;;-0.32;87.94727;101084.5;;;;-82
2021/12/02 20:55:35;;;;;;;;;;;;;;;-0.32;87.95801;101084.7;;;;-80
2021/12/02 21:00:33;;;;;;;;;;;;;;;-0.34;87.90039;101093.1;;;;-80
2021/12/02 21:05:49;;;;;;;;;;;;;;;-0.35;87.97168;101089.5;;;;-81
2021/12/02 21:08:11;;;;;;;4.9;1.6;;;;;;;;;;;;;-80
2021/12/02 21:10:30;;;;;;;;;;;;;;;-0.35;88.0791;101081.2;;;;-81
2021/12/02 21:15:29;;;;;;;;;;;;;;;-0.39;87.96387;101075.1;;;;-81
2021/12/02 21:20:32;;;;;;;;;;;;;;;-0.4;88.00391;101068.2;;;;-79
2021/12/02 21:25:29;;;;;;;;;;;;;;;-0.41;88.15234;101063.5;;;;-82
2021/12/02 21:30:29;;;;;;;;;;;;;;;-0.41;88.14355;101069.7;;;;-80
2021/12/02 21:35:30;;;;;;;;;;;;;;;-0.41;88.12012;101082;;;;-81
2021/12/02 21:38:12;;;;;;;4.9;1.7;;;;;;;;;;;;;-81
2021/12/02 21:40:31;;;;;;;;;;;;;;;-0.44;88.11621;101096.8;;;;-81
2021/12/02 21:45:32;;;;;;;;;;;;;;;-0.46;88.12305;101092;;;;-82
2021/12/02 21:50:30;;;;;;;;;;;;;;;-0.47;88.03516;101066.4;;;;-81
2021/12/02 21:55:31;;;;;;;;;;;;;;;-0.49;87.91309;101059.8;;;;-81
2021/12/02 22:00:35;;;;;;;;;;;;;;;-0.52;87.8623;101066.3;;;;-80
2021/12/02 22:05:28;;;;;;;;;;;;;;;-0.56;87.82129;101055.1;;;;-80
2021/12/02 22:08:10;;;;;;;4.3;1.5;;;;;;;;;;;;;-81
2021/12/02 22:10:29;;;;;;;;;;;;;;;-0.59;88.05371;101069.4;;;;-80
2021/12/02 22:15:28;;;;;;;;;;;;;;;-0.6;88.02832;101097;;;;-81
2021/12/02 22:20:29;;;;;;;;;;;;;;;-0.6;87.93164;101103.3;;;;-81
2021/12/02 22:25:28;;;;;;;;;;;;;;;-0.61;87.84375;101105.6;;;;-81
2021/12/02 22:30:28;;;;;;;;;;;;;;;-0.61;87.9834;101108.2;;;;-80
2021/12/02 22:35:29;;;;;;;;;;;;;;;-0.61;87.90625;101113.8;;;;-79
2021/12/02 22:38:11;;;;;;;3.3;1.2;;;;;;;;;;;;;-80
2021/12/02 22:40:29;;;;;;;;;;;;;;;-0.62;88.10938;101116.7;;;;-80
2021/12/02 22:45:30;;;;;;;;;;;;;;;-0.65;88.07324;101117.1;;;;-80
2021/12/02 22:50:28;;;;;;;;;;;;;;;-0.65;88.17871;101117.2;;;;-78
2021/12/02 22:55:28;;;;;;;;;;;;;;;-0.65;88.14648;101123.2;;;;-80
2021/12/02 23:00:30;;;;;;;;;;;;;;;-0.65;88.17871;101112;;;;-80
2021/12/02 23:05:28;;;;;;;;;;;;;;;-0.65;88.24512;101105.4;;;;-80
2021/12/02 23:08:06;;;;;;;3.4;1.4;;;;;;;;;;;;;-82
2021/12/02 23:10:29;;;;;;;;;;;;;;;-0.63;88.35449;101104.2;;;;-80
2021/12/02 23:15:29;;;;;;;;;;;;;;;-0.62;88.33691;101099.2;;;;-80
2021/12/02 23:20:28;;;;;;;;;;;;;;;-0.6;88.44629;101093.9;;;;-81
2021/12/02 23:25:35;;;;;;;;;;;;;;;-0.57;88.55957;101081.7;;;;-82
2021/12/02 23:30:29;;;;;;;;;;;;;;;-0.55;88.61035;101094.8;;;;-81
2021/12/02 23:35:28;;;;;;;;;;;;;;;-0.53;88.66602;101094.5;;;;-81
2021/12/02 23:38:04;;;;;;;3;1.2;;;;;;;;;;;;;-81
2021/12/02 23:40:29;;;;;;;;;;;;;;;-0.51;88.73535;101085;;;;-81
2021/12/02 23:45:28;;;;;;;;;;;;;;;-0.5;88.70313;101084.7;;;;-81
2021/12/02 23:50:29;;;;;;;;;;;;;;;-0.51;88.69238;101083.3;;;;-81
2021/12/02 23:55:28;;;;;;;;;;;;;;;-0.52;88.68848;101080.1;;;;-81
